createdAt,value
2023-01-28T00:00:08.400Z,4.03
2023-01-28T00:02:36.564Z,3.90
2023-01-28T00:05:05.483Z,4.27
2023-01-28T00:07:33.262Z,3.63
2023-01-28T00:10:01.511Z,4.37
2023-01-28T00:12:29.545Z,4.70
2023-01-28T00:14:57.568Z,3.80
2023-01-28T00:17:27.806Z,4.07
2023-01-28T00:19:58.264Z,3.43
2023-01-28T00:22:28.385Z,4.00
2023-01-28T00:25:00.027Z,4.03
2023-01-28T00:27:32.337Z,3.83
2023-01-28T00:30:06.359Z,3.30
2023-01-28T00:32:45.401Z,3.80
2023-01-28T00:35:16.871Z,5.10
2023-01-28T00:37:49.615Z,4.17
2023-01-28T00:40:22.404Z,4.03
2023-01-28T00:42:54.148Z,4.00
2023-01-28T00:45:22.276Z,3.77
2023-01-28T00:47:51.460Z,4.10
2023-01-28T00:50:21.394Z,4.37
2023-01-28T00:52:49.686Z,4.33
2023-01-28T00:55:18.930Z,4.13
2023-01-28T00:57:46.847Z,3.87
2023-01-28T01:00:15.421Z,4.43
2023-01-28T01:02:43.436Z,3.73
2023-01-28T01:05:14.489Z,4.07
2023-01-28T01:07:42.872Z,4.73
2023-01-28T01:10:13.013Z,4.17
2023-01-28T01:12:41.344Z,4.33
2023-01-28T01:15:10.757Z,4.43
2023-01-28T01:17:39.200Z,4.07
2023-01-28T01:20:10.355Z,4.00
2023-01-28T01:22:39.652Z,4.40
2023-01-28T01:25:09.325Z,3.90
2023-01-28T01:27:37.694Z,4.17
2023-01-28T01:30:07.297Z,4.20
2023-01-28T01:32:36.023Z,3.80
2023-01-28T01:35:08.093Z,4.13
2023-01-28T01:37:36.188Z,4.13
2023-01-28T01:40:06.874Z,3.73
2023-01-28T01:42:35.102Z,3.80
2023-01-28T01:45:06.866Z,3.63
2023-01-28T01:47:42.570Z,3.87
2023-01-28T01:50:17.134Z,3.67
2023-01-28T01:52:47.089Z,3.57
2023-01-28T01:55:20.729Z,2.97
2023-01-28T01:57:52.196Z,3.10
2023-01-28T02:00:20.494Z,3.00
2023-01-28T02:02:50.212Z,3.50
2023-01-28T02:05:21.597Z,3.47
2023-01-28T02:07:55.419Z,3.20
2023-01-28T02:10:25.641Z,3.57
2023-01-28T02:12:58.882Z,3.50
2023-01-28T02:15:29.710Z,3.30
2023-01-28T02:17:58.435Z,3.53
2023-01-28T02:20:32.801Z,3.60
2023-01-28T02:23:18.630Z,3.80
2023-01-28T02:26:25.307Z,3.50
2023-01-28T02:28:59.166Z,3.50
2023-01-28T02:31:34.116Z,3.30
2023-01-28T02:34:08.620Z,4.03
2023-01-28T02:36:44.738Z,3.90
2023-01-28T02:39:20.003Z,3.70
2023-01-28T02:41:53.039Z,3.63
2023-01-28T02:44:22.976Z,3.30
2023-01-28T02:47:11.721Z,3.63
2023-01-28T02:49:44.318Z,3.57
2023-01-28T02:52:55.761Z,3.67
2023-01-28T02:55:35.576Z,3.90
2023-01-28T02:58:10.677Z,3.50
2023-01-28T03:00:48.333Z,3.37
2023-01-28T03:03:23.154Z,3.90
2023-01-28T03:06:06.701Z,3.87
2023-01-28T03:08:56.437Z,3.93
2023-01-28T03:11:42.635Z,3.53
2023-01-28T03:14:29.354Z,4.00
2023-01-28T03:17:19.738Z,3.70
2023-01-28T03:20:07.160Z,3.80
2023-01-28T03:22:59.398Z,3.87
2023-01-28T03:25:46.017Z,3.50
2023-01-28T03:28:37.379Z,4.27
2023-01-28T03:31:27.645Z,4.00
2023-01-28T03:34:18.543Z,3.90
2023-01-28T03:36:51.391Z,3.73
2023-01-28T03:39:45.281Z,3.23
2023-01-28T03:42:15.571Z,3.50
2023-01-28T03:45:05.375Z,3.57
2023-01-28T03:47:34.065Z,3.47
2023-01-28T03:50:07.126Z,3.63
2023-01-28T03:52:42.825Z,3.53
2023-01-28T03:55:25.825Z,3.37
2023-01-28T03:57:53.671Z,3.80
2023-01-28T04:00:22.478Z,3.50
2023-01-28T04:02:50.731Z,3.43
2023-01-28T04:05:22.793Z,3.43
2023-01-28T04:07:52.268Z,3.40
2023-01-28T04:10:40.321Z,3.40
2023-01-28T04:13:18.489Z,3.10
2023-01-28T04:15:46.892Z,3.13
2023-01-28T04:18:16.573Z,3.50
2023-01-28T04:20:45.686Z,3.63
2023-01-28T04:23:13.429Z,3.00
2023-01-28T04:25:41.128Z,4.33
2023-01-28T04:28:10.966Z,3.57
2023-01-28T04:30:38.773Z,3.07
2023-01-28T04:33:24.294Z,3.70
2023-01-28T04:35:53.774Z,4.03
2023-01-28T04:38:38.110Z,3.60
2023-01-28T04:41:24.429Z,3.63
2023-01-28T04:43:52.716Z,4.13
2023-01-28T04:46:26.674Z,3.67
2023-01-28T04:49:02.077Z,3.63
2023-01-28T04:51:50.089Z,3.97
2023-01-28T04:54:21.192Z,3.67
2023-01-28T04:56:49.833Z,4.27
2023-01-28T04:59:18.145Z,3.67
2023-01-28T05:01:45.865Z,4.07
2023-01-28T05:04:13.674Z,3.80
2023-01-28T05:06:41.324Z,4.20
2023-01-28T05:09:25.901Z,4.43
2023-01-28T05:11:53.621Z,4.37
2023-01-28T05:14:22.251Z,4.07
2023-01-28T05:17:05.531Z,4.37
2023-01-28T05:19:33.923Z,3.90
2023-01-28T05:22:04.619Z,4.53
2023-01-28T05:24:46.268Z,4.40
2023-01-28T05:27:15.073Z,3.97
2023-01-28T05:29:43.693Z,3.87
2023-01-28T05:32:11.940Z,3.50
2023-01-28T05:34:40.363Z,4.03
2023-01-28T05:37:13.192Z,4.03
2023-01-28T05:39:41.375Z,3.60
2023-01-28T05:42:11.399Z,4.50
2023-01-28T05:44:44.584Z,3.87
2023-01-28T05:47:31.322Z,3.77
2023-01-28T05:50:18.331Z,3.83
2023-01-28T05:53:06.979Z,3.90
2023-01-28T05:55:36.171Z,4.47
2023-01-28T05:58:05.630Z,3.90
2023-01-28T06:00:34.260Z,4.30
2023-01-28T06:03:04.566Z,4.20
2023-01-28T06:05:34.034Z,4.60
2023-01-28T06:08:03.318Z,3.80
2023-01-28T06:10:31.109Z,4.43
2023-01-28T06:12:59.056Z,4.17
2023-01-28T06:16:00.675Z,4.40
2023-01-28T06:18:42.516Z,4.37
2023-01-28T06:21:10.637Z,4.20
2023-01-28T06:23:38.586Z,4.30
2023-01-28T06:26:09.354Z,4.43
2023-01-28T06:28:40.134Z,4.70
2023-01-28T06:31:09.352Z,4.27
2023-01-28T06:33:37.386Z,4.53
2023-01-28T06:36:06.847Z,4.10
2023-01-28T06:38:35.562Z,4.03
2023-01-28T06:41:03.678Z,4.50
2023-01-28T06:43:31.369Z,4.60
2023-01-28T06:46:02.108Z,3.97
2023-01-28T06:48:31.284Z,5.50
2023-01-28T06:50:59.028Z,5.40
2023-01-28T06:53:26.886Z,5.60
2023-01-28T06:55:54.678Z,5.33
2023-01-28T06:58:22.372Z,4.73
2023-01-28T07:00:50.296Z,4.47
2023-01-28T07:03:18.035Z,4.63
2023-01-28T07:05:47.144Z,3.80
2023-01-28T07:08:15.191Z,5.00
2023-01-28T07:10:43.839Z,4.53
2023-01-28T07:13:11.696Z,4.50
2023-01-28T07:15:39.522Z,4.40
2023-01-28T07:18:07.368Z,4.73
2023-01-28T07:20:35.175Z,4.60
2023-01-28T07:23:04.338Z,4.93
2023-01-28T07:25:32.272Z,4.67
2023-01-28T07:27:59.965Z,4.40
2023-01-28T07:30:27.720Z,4.33
2023-01-28T07:32:56.129Z,4.03
2023-01-28T07:35:24.458Z,4.60
2023-01-28T07:37:53.754Z,5.30
2023-01-28T07:40:23.446Z,5.03
2023-01-28T07:42:51.302Z,4.70
2023-01-28T07:45:23.485Z,4.60
2023-01-28T07:47:56.179Z,5.20
2023-01-28T07:50:24.403Z,5.57
2023-01-28T07:52:52.250Z,5.57
2023-01-28T07:55:19.990Z,5.10
2023-01-28T07:57:54.308Z,5.77
2023-01-28T08:00:24.801Z,4.73
2023-01-28T08:02:57.419Z,4.53
2023-01-28T08:05:27.344Z,4.87
2023-01-28T08:07:55.615Z,4.63
2023-01-28T08:10:23.480Z,5.07
2023-01-28T08:12:58.356Z,5.40
2023-01-28T08:15:27.572Z,4.60
2023-01-28T08:17:56.128Z,4.70
2023-01-28T08:20:24.058Z,5.17
2023-01-28T08:22:52.008Z,4.90
2023-01-28T08:25:20.158Z,4.93
2023-01-28T08:27:47.885Z,4.30
2023-01-28T08:30:17.605Z,5.10
2023-01-28T08:32:45.674Z,4.97
2023-01-28T08:35:14.227Z,5.57
2023-01-28T08:37:41.976Z,5.50
2023-01-28T08:40:11.803Z,4.40
2023-01-28T08:42:39.478Z,4.20
2023-01-28T08:45:08.679Z,4.40
2023-01-28T08:47:38.018Z,4.53
2023-01-28T08:50:06.667Z,4.67
2023-01-28T08:52:34.367Z,4.40
2023-01-28T08:55:02.441Z,4.43
2023-01-28T08:57:30.159Z,4.40
2023-01-28T08:59:58.223Z,4.23
2023-01-28T09:02:31.821Z,4.00
2023-01-28T09:05:01.328Z,4.17
2023-01-28T09:07:29.810Z,3.97
2023-01-28T09:09:57.613Z,4.20
2023-01-28T09:12:25.441Z,4.13
2023-01-28T09:14:53.203Z,4.33
2023-01-28T09:17:22.307Z,4.43
2023-01-28T09:19:50.489Z,3.97
2023-01-28T09:22:19.563Z,4.10
2023-01-28T09:24:47.289Z,4.20
2023-01-28T09:27:15.435Z,3.87
2023-01-28T09:29:43.563Z,3.63
2023-01-28T09:32:11.444Z,3.23
2023-01-28T09:34:39.585Z,3.63
2023-01-28T09:37:07.657Z,3.50
2023-01-28T09:39:36.785Z,4.00
2023-01-28T09:42:32.666Z,4.33
2023-01-28T09:45:13.172Z,3.90
2023-01-28T09:47:45.111Z,3.23
2023-01-28T09:50:21.298Z,4.10
2023-01-28T09:52:49.647Z,3.93
2023-01-28T09:55:31.965Z,4.00
2023-01-28T09:58:00.441Z,4.93
2023-01-28T10:00:32.939Z,3.40
2023-01-28T10:03:16.350Z,4.50
2023-01-28T10:05:54.789Z,4.43
2023-01-28T10:08:36.245Z,4.27
2023-01-28T10:11:13.380Z,3.43
2023-01-28T10:13:49.488Z,4.70
2023-01-28T10:16:25.382Z,4.47
2023-01-28T10:18:58.788Z,4.27
2023-01-28T10:21:30.669Z,4.53
2023-01-28T10:24:04.163Z,4.30
2023-01-28T10:26:37.302Z,3.97
2023-01-28T10:29:13.910Z,4.10
2023-01-28T10:31:48.442Z,3.87
2023-01-28T10:34:20.054Z,4.10
2023-01-28T10:36:48.434Z,3.73
2023-01-28T10:39:18.763Z,4.00
2023-01-28T10:41:57.489Z,4.90
2023-01-28T10:44:33.428Z,5.30
2023-01-28T10:47:04.890Z,3.33
2023-01-28T10:49:34.387Z,3.40
2023-01-28T10:52:12.293Z,3.40
2023-01-28T10:54:40.025Z,3.50
2023-01-28T10:57:14.041Z,3.53
2023-01-28T10:59:43.288Z,3.70
2023-01-28T11:02:32.277Z,3.60
2023-01-28T11:05:06.381Z,3.60
2023-01-28T11:07:34.546Z,4.57
2023-01-28T11:10:03.282Z,4.30
2023-01-28T11:12:32.362Z,3.60
2023-01-28T11:15:02.479Z,3.50
2023-01-28T11:17:32.843Z,3.50
2023-01-28T11:20:14.338Z,3.27
2023-01-28T11:22:44.753Z,3.53
2023-01-28T11:25:19.642Z,3.50
2023-01-28T11:27:50.795Z,3.63
2023-01-28T11:30:23.770Z,3.30
2023-01-28T11:32:57.102Z,3.53
2023-01-28T11:35:28.824Z,3.63
2023-01-28T11:37:57.172Z,2.93
2023-01-28T11:40:25.490Z,3.60
2023-01-28T11:42:57.767Z,3.63
2023-01-28T11:45:38.176Z,3.93
2023-01-28T11:48:22.384Z,3.20
2023-01-28T11:50:55.616Z,3.80
2023-01-28T11:53:40.432Z,3.93
2023-01-28T11:56:26.292Z,3.83
2023-01-28T11:59:04.663Z,3.83
2023-01-28T12:01:39.986Z,4.43
2023-01-28T12:04:25.071Z,4.13
2023-01-28T12:07:05.322Z,3.73
2023-01-28T12:09:44.137Z,3.73
2023-01-28T12:12:24.660Z,3.70
2023-01-28T12:15:19.301Z,4.10
2023-01-28T12:17:58.654Z,3.80
2023-01-28T12:20:31.959Z,3.80
2023-01-28T12:23:26.168Z,4.60
2023-01-28T12:26:08.277Z,4.50
2023-01-28T12:29:01.611Z,3.83
2023-01-28T12:31:45.228Z,4.40
2023-01-28T12:34:42.075Z,4.23
2023-01-28T12:37:17.807Z,3.57
2023-01-28T12:40:03.929Z,4.00
2023-01-28T12:42:38.325Z,4.07
2023-01-28T12:45:17.377Z,4.77
2023-01-28T12:47:51.582Z,4.07
2023-01-28T12:50:23.923Z,4.30
2023-01-28T12:52:56.809Z,4.53
2023-01-28T12:55:38.557Z,5.23
2023-01-28T12:58:08.772Z,4.80
2023-01-28T13:00:40.853Z,5.60
2023-01-28T13:03:19.735Z,5.07
2023-01-28T13:05:51.726Z,4.73
2023-01-28T13:08:24.594Z,4.90
2023-01-28T13:10:53.949Z,4.97
2023-01-28T13:13:30.026Z,4.93
2023-01-28T13:15:58.382Z,4.77
2023-01-28T13:18:34.692Z,4.70
2023-01-28T13:21:05.965Z,5.37
2023-01-28T13:23:42.088Z,5.53
2023-01-28T13:26:27.640Z,5.80
2023-01-28T13:29:07.956Z,5.50
2023-01-28T13:31:39.872Z,4.90
2023-01-28T13:34:11.162Z,5.33
2023-01-28T13:36:44.936Z,5.23
2023-01-28T13:39:20.899Z,4.50
2023-01-28T13:41:51.195Z,5.57
2023-01-28T13:44:21.291Z,4.70
2023-01-28T13:46:48.995Z,3.97
2023-01-28T13:49:24.056Z,4.10
2023-01-28T13:52:00.928Z,4.77
2023-01-28T13:54:32.775Z,5.10
2023-01-28T13:57:18.877Z,4.80
2023-01-28T13:59:55.148Z,4.27
2023-01-28T14:03:02.983Z,5.30
2023-01-28T14:06:05.198Z,4.77
2023-01-28T14:09:04.433Z,4.13
2023-01-28T14:12:06.692Z,3.87
2023-01-28T14:15:13.937Z,4.00
2023-01-28T14:17:45.802Z,3.97
2023-01-28T14:20:21.861Z,3.37
2023-01-28T14:22:52.868Z,3.27
2023-01-28T14:25:30.317Z,4.10
2023-01-28T14:28:00.054Z,4.00
2023-01-28T14:30:38.840Z,3.23
2023-01-28T14:33:12.418Z,3.80
2023-01-28T14:35:46.190Z,3.60
2023-01-28T14:38:18.473Z,3.90
2023-01-28T14:40:46.784Z,4.60
2023-01-28T14:43:19.526Z,4.23
2023-01-28T14:46:05.009Z,4.40
2023-01-28T14:48:40.260Z,3.80
2023-01-28T14:51:31.193Z,3.43
2023-01-28T14:54:21.702Z,4.23
2023-01-28T14:57:04.199Z,4.03
2023-01-28T14:59:38.604Z,3.93
2023-01-28T15:02:18.218Z,4.23
2023-01-28T15:04:45.964Z,3.80
2023-01-28T15:07:19.459Z,3.53
2023-01-28T15:10:00.251Z,3.17
2023-01-28T15:12:28.613Z,2.93
2023-01-28T15:14:56.566Z,2.70
2023-01-28T15:17:27.308Z,2.70
2023-01-28T15:19:57.387Z,2.50
2023-01-28T15:22:28.533Z,2.80
2023-01-28T15:24:57.690Z,3.10
2023-01-28T15:27:30.265Z,2.83
2023-01-28T15:30:02.478Z,2.73
2023-01-28T15:32:32.817Z,3.57
2023-01-28T15:35:02.135Z,3.80
2023-01-28T15:37:30.403Z,3.60
2023-01-28T15:40:06.508Z,4.37
2023-01-28T15:42:35.427Z,3.30
2023-01-28T15:45:04.423Z,2.87
2023-01-28T15:47:35.258Z,3.70
2023-01-28T15:50:07.170Z,3.50
2023-01-28T15:52:37.428Z,4.50
2023-01-28T15:55:08.990Z,4.23
2023-01-28T15:57:36.870Z,4.80
2023-01-28T16:00:13.743Z,3.87
2023-01-28T16:02:46.546Z,3.47
2023-01-28T16:05:29.132Z,3.60
2023-01-28T16:07:58.386Z,3.80
2023-01-28T16:10:30.492Z,4.13
2023-01-28T16:13:07.358Z,4.30
2023-01-28T16:15:36.630Z,4.93
2023-01-28T16:18:05.924Z,5.60
2023-01-28T16:20:34.684Z,5.03
2023-01-28T16:23:04.469Z,5.00
2023-01-28T16:25:36.845Z,4.33
2023-01-28T16:28:15.125Z,4.57
2023-01-28T16:30:42.800Z,4.37
2023-01-28T16:33:19.167Z,4.67
2023-01-28T16:36:04.597Z,5.40
2023-01-28T16:38:34.922Z,4.90
2023-01-28T16:41:03.984Z,5.17
2023-01-28T16:43:32.370Z,5.00
2023-01-28T16:46:00.118Z,4.77
2023-01-28T16:48:30.604Z,3.80
2023-01-28T16:50:59.120Z,4.60
2023-01-28T16:53:33.947Z,4.00
2023-01-28T16:56:02.369Z,4.40
2023-01-28T16:58:31.656Z,4.43
2023-01-28T17:00:59.571Z,4.77
2023-01-28T17:03:27.356Z,4.90
2023-01-28T17:05:55.045Z,5.00
2023-01-28T17:08:22.706Z,4.53
2023-01-28T17:10:54.000Z,4.23
2023-01-28T17:13:22.185Z,4.47
2023-01-28T17:15:51.603Z,4.80
2023-01-28T17:18:19.251Z,5.93
2023-01-28T17:20:47.467Z,5.77
2023-01-28T17:23:17.420Z,7.37
2023-01-28T17:25:45.950Z,6.10
2023-01-28T17:28:13.789Z,5.37
2023-01-28T17:30:42.757Z,4.77
2023-01-28T17:33:11.940Z,5.70
2023-01-28T17:35:39.676Z,6.20
2023-01-28T17:38:07.630Z,6.23
2023-01-28T17:40:36.199Z,5.27
2023-01-28T17:43:04.139Z,5.67
2023-01-28T17:45:32.452Z,5.53
2023-01-28T17:48:00.411Z,4.83
2023-01-28T17:50:29.451Z,4.60
2023-01-28T17:52:57.580Z,4.97
2023-01-28T17:55:26.222Z,5.13
2023-01-28T17:57:54.070Z,5.53
2023-01-28T18:00:23.515Z,5.00
2023-01-28T18:02:52.795Z,5.30
2023-01-28T18:05:20.633Z,4.97
2023-01-28T18:07:50.577Z,4.70
2023-01-28T18:10:19.503Z,4.50
2023-01-28T18:12:47.892Z,5.27
2023-01-28T18:15:16.356Z,5.20
2023-01-28T18:17:44.308Z,5.43
2023-01-28T18:20:12.491Z,5.63
2023-01-28T18:22:40.858Z,5.90
2023-01-28T18:25:15.992Z,5.27
2023-01-28T18:27:44.300Z,6.00
2023-01-28T18:30:14.202Z,5.57
2023-01-28T18:32:42.369Z,5.97
2023-01-28T18:35:12.453Z,6.30
2023-01-28T18:37:40.867Z,5.93
2023-01-28T18:40:11.564Z,6.63
2023-01-28T18:42:39.895Z,6.03
2023-01-28T18:45:08.811Z,10.20
2023-01-28T18:47:36.727Z,7.53
2023-01-28T18:50:05.371Z,6.30
2023-01-28T18:52:33.416Z,6.33
2023-01-28T18:55:01.180Z,6.60
2023-01-28T18:57:30.919Z,6.50
2023-01-28T18:59:58.788Z,6.03
2023-01-28T19:02:27.101Z,5.53
2023-01-28T19:04:56.667Z,7.77
2023-01-28T19:07:25.004Z,8.10
2023-01-28T19:09:52.728Z,7.53
2023-01-28T19:12:22.391Z,7.43
2023-01-28T19:14:51.566Z,7.20
2023-01-28T19:17:19.435Z,7.43
2023-01-28T19:19:47.544Z,8.03
2023-01-28T19:22:15.356Z,8.80
2023-01-28T19:24:43.115Z,7.87
2023-01-28T19:27:10.960Z,7.37
2023-01-28T19:29:38.657Z,7.27
2023-01-28T19:32:08.078Z,7.20
2023-01-28T19:34:36.756Z,7.37
2023-01-28T19:37:04.836Z,7.50
2023-01-28T19:39:32.687Z,8.20
2023-01-28T19:42:02.348Z,7.97
2023-01-28T19:44:30.437Z,7.33
2023-01-28T19:46:59.356Z,8.07
2023-01-28T19:49:29.095Z,7.67
2023-01-28T19:51:57.228Z,8.93
2023-01-28T19:54:24.946Z,10.03
2023-01-28T19:56:52.679Z,8.23
2023-01-28T19:59:20.591Z,8.87
2023-01-28T20:01:49.523Z,8.57
2023-01-28T20:04:17.261Z,7.47
2023-01-28T20:06:46.722Z,8.23
2023-01-28T20:09:16.535Z,7.53
2023-01-28T20:11:44.604Z,7.47
2023-01-28T20:14:14.870Z,8.10
2023-01-28T20:16:43.843Z,8.43
2023-01-28T20:19:15.548Z,8.57
2023-01-28T20:21:43.753Z,8.53
2023-01-28T20:24:14.089Z,7.93
2023-01-28T20:26:44.388Z,8.10
2023-01-28T20:29:14.384Z,8.00
2023-01-28T20:31:43.643Z,7.47
2023-01-28T20:34:16.003Z,8.30
2023-01-28T20:36:44.398Z,9.67
2023-01-28T20:39:14.243Z,10.70
2023-01-28T20:41:41.995Z,10.87
2023-01-28T20:44:09.720Z,7.93
2023-01-28T20:46:38.898Z,7.77
2023-01-28T20:49:07.298Z,7.33
2023-01-28T20:51:36.296Z,7.67
2023-01-28T20:54:04.310Z,7.50
2023-01-28T20:56:33.454Z,8.40
2023-01-28T20:59:02.804Z,7.83
2023-01-28T21:01:34.348Z,8.90
2023-01-28T21:04:02.666Z,8.57
2023-01-28T21:06:30.800Z,8.53
2023-01-28T21:08:58.948Z,8.80
2023-01-28T21:11:28.573Z,8.57
2023-01-28T21:13:57.996Z,9.30
2023-01-28T21:16:26.534Z,9.10
2023-01-28T21:18:54.202Z,8.70
2023-01-28T21:21:23.959Z,9.17
2023-01-28T21:23:54.561Z,10.00
2023-01-28T21:26:22.646Z,9.97
2023-01-28T21:28:50.327Z,8.83
2023-01-28T21:31:21.869Z,8.80
2023-01-28T21:33:50.677Z,9.00
2023-01-28T21:36:19.039Z,9.33
2023-01-28T21:38:51.497Z,9.77
2023-01-28T21:41:19.153Z,9.40
2023-01-28T21:43:51.931Z,9.37
2023-01-28T21:46:21.489Z,9.60
2023-01-28T21:48:50.027Z,9.50
2023-01-28T21:51:35.672Z,9.57
2023-01-28T21:54:04.160Z,8.80
2023-01-28T21:56:32.582Z,10.10
2023-01-28T21:59:18.605Z,10.63
2023-01-28T22:01:49.119Z,10.20
2023-01-28T22:04:17.407Z,10.33
2023-01-28T22:06:45.255Z,10.30
2023-01-28T22:09:13.872Z,10.83
2023-01-28T22:11:42.927Z,10.23
2023-01-28T22:14:11.907Z,10.53
2023-01-28T22:16:40.373Z,10.03
2023-01-28T22:19:10.312Z,9.83
2023-01-28T22:21:41.158Z,9.53
2023-01-28T22:24:11.878Z,9.37
2023-01-28T22:26:39.626Z,10.40
2023-01-28T22:29:08.431Z,11.60
2023-01-28T22:31:36.825Z,12.43
2023-01-28T22:34:04.957Z,8.37
2023-01-28T22:36:35.032Z,7.33
2023-01-28T22:39:04.409Z,8.03
2023-01-28T22:41:32.321Z,7.67
2023-01-28T22:44:01.599Z,7.77
2023-01-28T22:46:29.359Z,7.93
2023-01-28T22:48:57.032Z,8.70
2023-01-28T22:51:26.494Z,8.93
2023-01-28T22:53:55.772Z,8.77
2023-01-28T22:56:25.638Z,13.10
2023-01-28T22:58:55.676Z,19.03
2023-01-28T23:01:23.958Z,20.13
2023-01-28T23:03:52.902Z,18.03
2023-01-28T23:06:23.048Z,14.87
2023-01-28T23:08:51.909Z,12.57
2023-01-28T23:11:27.228Z,10.77
2023-01-28T23:14:14.282Z,9.33
2023-01-28T23:17:00.255Z,8.70
2023-01-28T23:19:46.076Z,7.70
2023-01-28T23:22:34.742Z,8.33
2023-01-28T23:25:02.490Z,7.87
2023-01-28T23:27:31.921Z,8.67
2023-01-28T23:30:00.100Z,7.70
2023-01-28T23:32:27.852Z,8.60
2023-01-28T23:34:55.642Z,8.60
2023-01-28T23:37:23.522Z,8.80
2023-01-28T23:39:52.226Z,8.20
2023-01-28T23:42:23.470Z,8.20
2023-01-28T23:44:52.815Z,8.23
2023-01-28T23:47:20.548Z,9.50
2023-01-28T23:49:48.203Z,11.43
2023-01-28T23:52:15.943Z,11.87
2023-01-28T23:54:43.675Z,11.93
2023-01-28T23:57:12.221Z,9.73
2023-01-28T23:59:39.999Z,8.60
